Time;durP1;ratioP1;P1;durP2;ratioP2;P2;SDS_P1;SDS_P2;PMS_P1;PMS_P2;Temp;Humidity;BMP_temperature;BMP_pressure;BME280_temperature;BME280_humidity;BME280_pressure;Samples;Min_cycle;Max_cycle;Signal;HPM_P1;HPM_P2
2022/08/02 00:00:14;;;;;;;6.80;6.30;;;;;;;11.62;93.46;101860.09;5033584;28;20797;-46
2022/08/02 00:02:45;;;;;;;8.70;6.00;;;;;;;11.57;92.99;101859.81;5033363;28;20882;-48
2022/08/02 00:05:13;;;;;;;6.27;5.70;;;;;;;11.52;93.40;101862.19;5033320;28;20454;-47
2022/08/02 00:07:41;;;;;;;7.20;6.70;;;;;;;11.48;93.91;101859.03;5032635;28;20475;-44
2022/08/02 00:10:11;;;;;;;11.03;7.10;;;;;;;11.45;93.76;101858.53;5033077;28;20432;-47
2022/08/02 00:12:39;;;;;;;14.97;6.93;;;;;;;11.40;94.11;101859.09;5033128;28;20439;-44
2022/08/02 00:15:08;;;;;;;10.03;7.60;;;;;;;11.33;94.08;101857.25;5033093;28;20442;-43
2022/08/02 00:17:43;;;;;;;14.70;7.00;;;;;;;11.26;94.29;101864.31;5032570;28;20917;-45
2022/08/02 00:20:13;;;;;;;8.23;5.70;;;;;;;11.19;94.56;101856.16;5033022;28;20432;-45
2022/08/02 00:22:41;;;;;;;7.43;6.87;;;;;;;11.15;95.02;101860.19;5032604;28;20925;-46
2022/08/02 00:25:09;;;;;;;6.30;5.80;;;;;;;11.10;95.17;101857.22;5033142;28;20438;-46
2022/08/02 00:27:37;;;;;;;10.83;7.70;;;;;;;11.06;95.00;101859.38;5032432;28;20563;-45
2022/08/02 00:30:05;;;;;;;10.23;6.90;;;;;;;11.05;95.08;101860.38;5032909;28;20436;-46
2022/08/02 00:32:33;;;;;;;7.13;5.67;;;;;;;10.99;94.94;101861.06;5032586;28;20439;-43
2022/08/02 00:35:01;;;;;;;9.53;7.07;;;;;;;10.96;95.09;101856.06;5024210;28;20433;-43
2022/08/02 00:37:29;;;;;;;8.57;7.40;;;;;;;10.93;95.03;101859.09;5032527;28;20459;-44
2022/08/02 00:39:57;;;;;;;7.47;6.70;;;;;;;10.89;95.36;101863.13;5032198;28;20886;-46
2022/08/02 00:42:25;;;;;;;8.40;6.40;;;;;;;10.86;96.13;101871.47;5032251;28;20432;-44
2022/08/02 00:44:52;;;;;;;7.27;6.67;;;;;;;10.84;95.83;101870.78;5032586;28;20443;-48
2022/08/02 00:47:20;;;;;;;8.63;7.20;;;;;;;10.81;95.89;101873.00;5032339;28;20506;-45
2022/08/02 00:49:47;;;;;;;7.57;6.87;;;;;;;10.76;95.88;101868.16;5031913;28;20456;-47
2022/08/02 00:52:16;;;;;;;7.47;6.73;;;;;;;10.71;96.17;101867.84;5032312;28;20436;-44
2022/08/02 00:54:44;;;;;;;10.10;6.83;;;;;;;10.69;96.51;101871.69;5032445;28;20447;-47
2022/08/02 00:57:12;;;;;;;12.80;7.47;;;;;;;10.67;96.20;101876.34;5032337;28;20462;-46
2022/08/02 00:59:40;;;;;;;8.10;6.63;;;;;;;10.68;97.16;101870.84;5031845;28;20456;-44
2022/08/02 01:02:08;;;;;;;9.60;7.27;;;;;;;10.66;97.09;101872.84;5031874;28;20440;-45
2022/08/02 01:04:36;;;;;;;7.13;6.40;;;;;;;10.67;97.21;101865.66;5023839;28;20443;-46
2022/08/02 01:07:04;;;;;;;6.80;6.10;;;;;;;10.65;97.47;101871.19;5023671;28;20984;-47
2022/08/02 01:09:42;;;;;;;6.63;6.13;;;;;;;10.66;97.26;101869.34;5031297;28;20510;-44
2022/08/02 01:12:10;;;;;;;8.10;7.07;;;;;;;10.65;97.04;101871.19;5031893;28;20430;-44
2022/08/02 01:14:40;;;;;;;13.13;7.47;;;;;;;10.64;97.03;101866.00;5031921;28;20436;-44
2022/08/02 01:17:12;;;;;;;7.90;7.30;;;;;;;10.60;97.06;101870.03;5031796;28;20459;-44
2022/08/02 01:19:45;;;;;;;7.83;6.43;;;;;;;10.58;97.07;101872.84;5031577;28;20464;-47
2022/08/02 01:22:33;;;;;;;7.17;6.43;;;;;;;10.54;97.41;101872.34;5031856;28;20429;-45
2022/08/02 01:25:36;;;;;;;7.77;6.97;;;;;;;10.51;97.63;101870.00;5031842;28;20444;-43
2022/08/02 01:28:26;;;;;;;8.50;6.90;;;;;;;10.47;97.77;101871.38;5031511;28;20824;-47
2022/08/02 01:30:59;;;;;;;9.13;7.60;;;;;;;10.44;97.84;101873.53;5032390;28;20432;-44
2022/08/02 01:33:35;;;;;;;6.67;6.13;;;;;;;10.39;98.00;101878.56;5031274;28;20975;-43
2022/08/02 01:36:04;;;;;;;15.70;8.13;;;;;;;10.33;98.01;101880.06;5023721;28;20440;-43
2022/08/02 01:38:35;;;;;;;8.57;7.50;;;;;;;10.30;98.03;101880.41;5031338;28;20467;-44
2022/08/02 01:41:05;;;;;;;8.00;7.20;;;;;;;10.27;97.96;101890.56;5031889;28;20436;-43
2022/08/02 01:43:36;;;;;;;7.90;7.20;;;;;;;10.20;97.85;101887.72;5031419;28;20979;-45
2022/08/02 01:46:04;;;;;;;10.10;7.27;;;;;;;10.16;97.77;101894.38;5032085;28;20471;-43
2022/08/02 01:48:34;;;;;;;7.53;6.97;;;;;;;10.11;98.04;101882.50;5031022;28;21011;-43
2022/08/02 01:51:04;;;;;;;8.50;7.70;;;;;;;10.07;97.93;101883.81;5031993;28;20420;-47
2022/08/02 01:53:33;;;;;;;11.23;7.17;;;;;;;10.02;97.61;101881.66;5031453;28;20436;-45
2022/08/02 01:56:02;;;;;;;12.40;7.27;;;;;;;10.01;97.94;101880.00;5031514;28;20452;-43
2022/08/02 01:58:33;;;;;;;9.33;7.23;;;;;;;9.96;98.19;101877.00;5031156;28;20837;-48
2022/08/02 02:01:02;;;;;;;8.97;8.07;;;;;;;9.92;97.78;101871.16;5031723;28;20433;-43
2022/08/02 02:03:32;;;;;;;10.60;9.00;;;;;;;9.88;97.91;101880.50;5031418;28;20985;-43
2022/08/02 02:06:03;;;;;;;8.83;7.60;;;;;;;9.85;97.81;101874.66;5031327;28;20460;-45
2022/08/02 02:08:36;;;;;;;12.10;7.43;;;;;;;9.84;98.17;101870.31;5030924;28;20478;-43
2022/08/02 02:11:04;;;;;;;8.67;7.87;;;;;;;9.80;98.07;101872.47;5031705;28;20412;-43
2022/08/02 02:13:52;;;;;;;13.73;8.50;;;;;;;9.76;98.13;101871.16;5031441;28;20432;-42
2022/08/02 02:16:22;;;;;;;10.43;7.67;;;;;;;9.71;98.02;101869.94;5031323;28;20463;-43
2022/08/02 02:18:53;;;;;;;8.07;7.27;;;;;;;9.69;98.12;101866.63;5030878;28;20464;-45
2022/08/02 02:21:20;;;;;;;9.53;7.70;;;;;;;9.66;98.10;101856.31;5031315;28;20425;-45
2022/08/02 02:23:48;;;;;;;10.37;8.40;;;;;;;9.64;98.33;101860.97;5035142;28;20440;-43
2022/08/02 02:26:18;;;;;;;8.33;7.53;;;;;;;9.62;98.30;101861.13;5035022;28;20463;-44
2022/08/02 02:28:59;;;;;;;10.20;7.80;;;;;;;9.60;98.36;101855.13;5034603;28;20833;-43
2022/08/02 02:31:32;;;;;;;8.53;7.80;;;;;;;9.56;98.25;101859.09;5035093;28;20961;-42
2022/08/02 02:34:04;;;;;;;8.23;7.53;;;;;;;9.53;98.36;101856.75;5034664;28;20432;-48
2022/08/02 02:36:34;;;;;;;8.23;7.50;;;;;;;9.52;98.68;101865.78;5020373;28;20450;-46
2022/08/02 02:39:05;;;;;;;9.60;8.70;;;;;;;9.51;98.89;101858.78;5034422;28;20462;-44
2022/08/02 02:41:40;;;;;;;11.57;9.30;;;;;;;9.47;98.80;101837.97;5035012;28;20444;-45
2022/08/02 02:44:13;;;;;;;8.43;7.90;;;;;;;9.46;98.99;101847.78;5034457;28;20439;-47
2022/08/02 02:46:43;;;;;;;8.70;7.70;;;;;;;9.45;99.32;101838.13;5034955;28;20452;-43
2022/08/02 02:49:12;;;;;;;9.97;9.00;;;;;;;9.44;99.40;101831.94;5034352;28;20476;-43
2022/08/02 02:51:40;;;;;;;9.27;8.37;;;;;;;9.44;99.48;101839.09;5034700;28;20436;-49
2022/08/02 02:54:11;;;;;;;12.80;9.10;;;;;;;9.47;99.64;101833.44;5034392;28;20436;-47
2022/08/02 02:57:00;;;;;;;9.00;8.10;;;;;;;9.48;99.70;101836.97;5034595;28;20455;-44
2022/08/02 02:59:29;;;;;;;9.20;8.50;;;;;;;9.49;99.84;101833.31;5034050;28;20490;-47
2022/08/02 03:01:58;;;;;;;10.73;9.60;;;;;;;9.48;99.89;101829.81;5034523;28;20442;-46
2022/08/02 03:04:28;;;;;;;9.20;8.30;;;;;;;9.49;100.00;101834.16;5034356;28;20440;-44
2022/08/02 03:07:16;;;;;;;8.77;8.17;;;;;;;9.51;100.00;101833.97;5034535;28;20877;-44
2022/08/02 03:09:44;;;;;;;10.00;9.10;;;;;;;9.51;100.00;101837.47;5033878;28;20475;-42
2022/08/02 03:12:20;;;;;;;12.53;9.63;;;;;;;9.55;100.00;101824.66;5034302;28;20431;-47
2022/08/02 03:14:48;;;;;;;10.43;9.53;;;;;;;9.58;100.00;101821.69;5034366;28;20436;-43
2022/08/02 03:17:17;;;;;;;10.27;9.00;;;;;;;9.60;100.00;101817.84;5034011;28;20466;-43
2022/08/02 03:19:45;;;;;;;11.60;8.47;;;;;;;9.62;100.00;101823.00;5033556;28;20460;-43
2022/08/02 03:22:13;;;;;;;11.30;10.20;;;;;;;9.66;100.00;101833.16;5034076;28;20454;-47
2022/08/02 03:24:41;;;;;;;10.77;9.77;;;;;;;9.69;100.00;101826.69;5034247;28;20442;-44
2022/08/02 03:27:08;;;;;;;10.73;9.10;;;;;;;9.74;100.00;101835.00;5033910;28;21038;-48
2022/08/02 03:29:36;;;;;;;9.07;8.13;;;;;;;9.78;100.00;101836.34;5033448;28;20484;-44
2022/08/02 03:32:04;;;;;;;11.93;8.90;;;;;;;9.79;100.00;101835.38;5033479;28;20440;-47
2022/08/02 03:34:33;;;;;;;9.40;8.50;;;;;;;9.80;100.00;101834.34;5029058;28;20956;-43
2022/08/02 03:37:02;;;;;;;10.10;8.17;;;;;;;9.82;100.00;101832.38;5030519;28;20447;-45
2022/08/02 03:39:32;;;;;;;7.23;6.53;;;;;;;9.84;100.00;101827.69;5033349;28;20464;-44
2022/08/02 03:42:00;;;;;;;8.97;8.17;;;;;;;9.84;100.00;101831.19;5033639;28;20436;-44
2022/08/02 03:44:28;;;;;;;10.20;9.20;;;;;;;9.85;100.00;101826.72;5033617;28;20440;-42
2022/08/02 03:46:57;;;;;;;10.40;8.67;;;;;;;9.84;100.00;101831.19;5033524;28;20451;-43
2022/08/02 03:49:25;;;;;;;11.60;9.50;;;;;;;9.87;100.00;101830.88;5033152;28;20483;-43
2022/08/02 03:51:55;;;;;;;15.67;9.20;;;;;;;9.88;100.00;101826.38;5033635;28;20424;-46
2022/08/02 03:54:23;;;;;;;10.00;8.80;;;;;;;9.90;100.00;101829.69;5033344;28;21131;-43
2022/08/02 03:57:01;;;;;;;10.43;9.37;;;;;;;9.91;100.00;101818.06;5033370;28;20452;-46
2022/08/02 03:59:28;;;;;;;9.60;8.90;;;;;;;9.91;100.00;101812.72;5032873;28;20845;-45
2022/08/02 04:01:59;;;;;;;9.97;9.07;;;;;;;9.94;100.00;101815.06;5033470;28;20857;-44
2022/08/02 04:04:29;;;;;;;9.03;8.07;;;;;;;9.98;100.00;101821.69;5033370;28;20527;-46
2022/08/02 04:06:58;;;;;;;9.80;8.90;;;;;;;10.00;100.00;101809.06;5033311;28;20454;-43
2022/08/02 04:09:26;;;;;;;9.40;8.50;;;;;;;10.04;100.00;101815.72;5032658;28;20483;-44
2022/08/02 04:11:53;;;;;;;10.47;9.50;;;;;;;10.08;100.00;101819.72;5033097;28;20440;-48
2022/08/02 04:14:21;;;;;;;8.77;7.77;;;;;;;10.12;100.00;101820.22;5033158;28;20443;-44
2022/08/02 04:16:53;;;;;;;9.63;8.73;;;;;;;10.16;100.00;101822.41;5032956;28;20826;-45
2022/08/02 04:19:27;;;;;;;9.50;8.70;;;;;;;10.25;100.00;101831.22;5032675;28;20467;-44
2022/08/02 04:21:57;;;;;;;9.67;8.30;;;;;;;10.29;100.00;101814.72;5033026;28;20774;-43
2022/08/02 04:24:30;;;;;;;10.17;9.30;;;;;;;10.35;100.00;101830.06;5032744;28;20436;-45
2022/08/02 04:27:00;;;;;;;8.97;8.20;;;;;;;10.43;100.00;101821.19;5032987;28;20456;-47
2022/08/02 04:29:46;;;;;;;10.20;9.27;;;;;;;10.47;100.00;101815.38;5032370;28;20515;-46
2022/08/02 04:32:14;;;;;;;9.67;8.67;;;;;;;10.57;100.00;101825.03;5032581;28;20436;-44
2022/08/02 04:34:43;;;;;;;8.80;7.90;;;;;;;10.71;100.00;101826.97;5026616;28;20441;-48
2022/08/02 04:37:30;;;;;;;9.33;8.43;;;;;;;10.92;100.00;101835.25;4993204;28;20457;-46
2022/08/02 04:40:00;;;;;;;8.63;7.93;;;;;;;11.24;100.00;101823.59;4992814;28;20531;-43
2022/08/02 04:42:27;;;;;;;8.17;7.47;;;;;;;11.41;100.00;101835.88;4993125;28;20447;-45
2022/08/02 04:44:56;;;;;;;8.00;7.30;;;;;;;11.91;100.00;101832.75;4992489;28;20815;-44
2022/08/02 04:47:24;;;;;;;8.57;7.97;;;;;;;12.28;100.00;101837.25;4993102;28;20461;-44
2022/08/02 04:50:12;;;;;;;8.80;6.90;;;;;;;13.23;100.00;101839.91;4992883;28;20485;-43
2022/08/02 04:52:40;;;;;;;6.60;6.20;;;;;;;14.55;100.00;101839.38;4993016;28;20453;-46
2022/08/02 04:55:14;;;;;;;7.43;6.03;;;;;;;15.55;100.00;101830.81;4993039;28;20948;-45
2022/08/02 04:57:57;;;;;;;6.83;6.33;;;;;;;16.53;95.86;101836.25;4992801;28;20442;-43
2022/08/02 05:00:26;;;;;;;6.40;5.90;;;;;;;17.29;85.86;101840.03;4993097;28;20521;-52
2022/08/02 05:02:55;;;;;;;7.50;6.93;;;;;;;17.57;74.23;101843.22;4992794;28;20806;-44
2022/08/02 05:05:23;;;;;;;7.90;7.20;;;;;;;17.38;73.73;101840.63;4992894;28;20440;-49
2022/08/02 05:07:51;;;;;;;8.43;7.73;;;;;;;17.51;72.50;101832.44;4992323;28;20438;-43
2022/08/02 05:10:20;;;;;;;7.17;6.47;;;;;;;18.04;74.49;101833.78;4992727;28;20481;-44
2022/08/02 05:12:48;;;;;;;7.03;6.57;;;;;;;19.41;72.48;101838.91;4992754;28;20441;-45
2022/08/02 05:15:17;;;;;;;6.50;5.60;;;;;;;20.60;70.76;101827.88;4992582;28;20432;-43
2022/08/02 05:17:45;;;;;;;7.07;6.57;;;;;;;21.66;66.88;101829.25;4992456;28;20457;-44
2022/08/02 05:20:15;;;;;;;6.80;6.30;;;;;;;22.65;63.10;101828.50;4992658;28;20927;-48
2022/08/02 05:22:43;;;;;;;7.33;6.33;;;;;;;23.56;59.85;101824.25;4992665;28;20429;-44
2022/08/02 05:25:11;;;;;;;5.63;5.20;;;;;;;24.29;56.92;101823.56;4992616;28;20931;-47
2022/08/02 05:27:40;;;;;;;5.43;5.00;;;;;;;24.81;53.81;101818.19;4992024;28;20978;-46
2022/08/02 05:30:09;;;;;;;5.37;4.97;;;;;;;25.39;51.65;101818.97;4992457;28;20477;-46
2022/08/02 05:32:43;;;;;;;4.57;4.13;;;;;;;25.52;48.54;101826.69;4992277;28;20966;-44
2022/08/02 05:35:11;;;;;;;6.33;5.10;;;;;;;25.87;48.89;101826.72;5019713;28;20436;-47
2022/08/02 05:37:39;;;;;;;5.90;4.70;;;;;;;26.02;45.27;101825.91;5031448;28;20462;-52
2022/08/02 05:40:10;;;;;;;4.50;4.20;;;;;;;26.36;47.40;101816.09;5031949;28;20428;-48
2022/08/02 05:42:41;;;;;;;5.00;4.50;;;;;;;26.85;45.81;101819.81;5031707;28;20478;-44
2022/08/02 05:45:09;;;;;;;4.70;4.30;;;;;;;27.06;42.83;101809.59;5030118;28;20442;-44
2022/08/02 05:47:38;;;;;;;4.47;4.07;;;;;;;27.15;43.42;101804.38;5031065;28;20573;-47
2022/08/02 05:50:07;;;;;;;4.83;4.33;;;;;;;27.52;40.03;101812.13;5031768;28;20726;-47
2022/08/02 05:52:45;;;;;;;4.20;3.80;;;;;;;27.88;43.18;101808.88;5031427;28;20437;-47
2022/08/02 05:55:17;;;;;;;4.70;3.90;;;;;;;27.40;40.31;101809.72;5031687;28;20432;-46
2022/08/02 05:57:53;;;;;;;5.23;4.20;;;;;;;27.29;39.53;101819.09;5035214;28;20435;-45
2022/08/02 06:00:21;;;;;;;6.97;4.57;;;;;;;27.34;42.17;101830.00;5035530;28;20792;-52
2022/08/02 06:03:22;;;;;;;4.27;3.87;;;;;;;27.58;40.62;101825.53;5035488;28;20443;-52
2022/08/02 06:05:58;;;;;;;4.40;4.10;;;;;;;27.71;40.39;101829.56;5035386;28;20451;-48
2022/08/02 06:08:33;;;;;;;4.30;3.93;;;;;;;28.07;41.20;101832.88;5034794;28;20459;-45
2022/08/02 06:11:02;;;;;;;3.80;3.50;;;;;;;28.32;40.92;101824.41;5035594;28;20481;-50
2022/08/02 06:13:32;;;;;;;4.00;3.70;;;;;;;28.10;41.12;101824.91;5034775;28;20428;-49
2022/08/02 06:16:00;;;;;;;3.93;3.07;;;;;;;28.25;39.12;101819.28;5021052;28;20464;-50
2022/08/02 06:18:28;;;;;;;4.17;3.70;;;;;;;28.33;38.95;101804.94;5014853;28;20460;-46
2022/08/02 06:20:58;;;;;;;4.10;3.80;;;;;;;28.17;39.36;101819.88;5015052;28;20434;-45
2022/08/02 06:23:47;;;;;;;4.00;3.70;;;;;;;28.24;35.99;101820.38;5015224;28;20451;-50
2022/08/02 06:26:26;;;;;;;3.93;3.60;;;;;;;28.07;36.11;101838.38;5015057;28;20217;-47
2022/08/02 06:28:56;;;;;;;4.87;3.20;;;;;;;28.11;37.63;101836.66;5014032;28;20467;-47
2022/08/02 06:31:24;;;;;;;4.17;3.40;;;;;;;27.99;38.37;101832.34;5014073;28;20494;-50
2022/08/02 06:33:52;;;;;;;2.90;2.70;;;;;;;27.90;38.84;101835.97;5021276;28;20204;-47
2022/08/02 06:36:27;;;;;;;4.70;4.03;;;;;;;27.78;39.25;101835.53;5026770;28;20458;-45
2022/08/02 06:39:04;;;;;;;4.10;3.27;;;;;;;28.13;38.92;101821.59;5034557;28;20471;-48
2022/08/02 06:41:39;;;;;;;6.33;3.10;;;;;;;28.60;39.19;101815.34;5034480;28;20427;-52
2022/08/02 06:44:09;;;;;;;4.30;3.90;;;;;;;28.72;36.00;101812.22;5034758;28;20443;-46
2022/08/02 06:46:58;;;;;;;3.07;2.80;;;;;;;28.53;38.06;101812.13;5034729;28;20220;-45
2022/08/02 06:49:39;;;;;;;5.20;3.33;;;;;;;28.35;35.20;101796.41;5021317;28;20276;-47
2022/08/02 06:52:20;;;;;;;5.67;2.97;;;;;;;28.53;36.49;101792.91;5013433;28;20248;-46
2022/08/02 06:54:55;;;;;;;4.70;3.27;;;;;;;28.94;37.18;101785.84;5015038;28;20221;-47
2022/08/02 06:57:22;;;;;;;3.93;3.20;;;;;;;28.95;37.11;101784.75;5014623;28;20217;-46
2022/08/02 06:59:51;;;;;;;6.27;2.70;;;;;;;29.26;36.28;101784.38;5014344;28;20236;-47
2022/08/02 07:02:19;;;;;;;3.03;2.60;;;;;;;29.14;36.36;101793.03;5014543;28;20193;-50
2022/08/02 07:04:47;;;;;;;5.90;3.00;;;;;;;29.15;36.24;101791.09;5014697;28;20201;-45
2022/08/02 07:07:14;;;;;;;5.27;2.97;;;;;;;29.34;34.76;101789.19;5014162;28;20222;-48
2022/08/02 07:09:42;;;;;;;4.70;3.67;;;;;;;29.56;34.83;101782.00;5014179;28;20748;-47
2022/08/02 07:12:29;;;;;;;3.53;2.83;;;;;;;29.57;34.55;101788.28;5014399;28;20190;-45
2022/08/02 07:14:59;;;;;;;5.73;2.70;;;;;;;29.67;34.33;101779.91;5014506;28;20297;-49
2022/08/02 07:17:26;;;;;;;3.60;2.87;;;;;;;29.85;34.77;101781.00;5014574;28;20249;-50
2022/08/02 07:19:54;;;;;;;9.23;3.90;;;;;;;29.65;34.63;101784.88;5013944;28;20229;-46
2022/08/02 07:22:23;;;;;;;3.73;2.70;;;;;;;29.74;35.27;101788.59;5014267;28;20194;-45
2022/08/02 07:24:51;;;;;;;5.77;2.90;;;;;;;29.70;33.96;101787.56;5014499;28;20208;-50
2022/08/02 07:27:19;;;;;;;6.83;3.30;;;;;;;29.69;35.14;101794.16;5014241;28;20592;-50
2022/08/02 07:29:46;;;;;;;4.03;2.67;;;;;;;29.44;33.43;101789.06;5013718;28;20239;-48
2022/08/02 07:32:16;;;;;;;3.20;2.80;;;;;;;29.40;33.82;101791.59;5013929;28;20217;-45
2022/08/02 07:34:43;;;;;;;7.20;3.07;;;;;;;28.93;34.75;101772.44;5022389;28;20288;-46
2022/08/02 07:37:20;;;;;;;5.37;2.50;;;;;;;28.74;35.52;101775.13;5025347;28;20236;-47
2022/08/02 07:40:09;;;;;;;7.60;3.10;;;;;;;28.41;35.21;101762.31;5033390;28;20221;-46
2022/08/02 07:42:42;;;;;;;6.10;3.07;;;;;;;28.17;36.61;101755.97;5033525;28;20197;-47
2022/08/02 07:45:10;;;;;;;5.80;3.33;;;;;;;27.86;35.76;101758.19;5033210;28;20203;-47
2022/08/02 07:47:42;;;;;;;5.97;3.40;;;;;;;27.55;36.14;101771.28;5032655;28;20717;-47
2022/08/02 07:50:10;;;;;;;3.67;3.33;;;;;;;27.56;37.26;101770.19;5033658;28;20529;-47
2022/08/02 07:52:39;;;;;;;4.33;3.20;;;;;;;27.44;37.52;101754.13;5032848;28;20266;-47
2022/08/02 07:55:07;;;;;;;3.83;3.43;;;;;;;27.11;37.19;101754.84;5033458;28;20436;-46
2022/08/02 07:57:35;;;;;;;5.00;3.20;;;;;;;26.53;37.50;101748.22;5033319;28;20452;-46
2022/08/02 08:00:04;;;;;;;3.40;3.10;;;;;;;26.31;38.29;101742.28;5033288;28;20802;-52
2022/08/02 08:02:32;;;;;;;4.37;3.40;;;;;;;25.90;39.00;101749.66;5033670;28;20454;-51
2022/08/02 08:05:01;;;;;;;4.17;3.63;;;;;;;25.61;39.57;101752.13;5033277;28;20436;-49
2022/08/02 08:07:28;;;;;;;4.47;3.80;;;;;;;25.07;40.48;101757.19;5033469;28;20460;-48
2022/08/02 08:09:56;;;;;;;5.43;3.80;;;;;;;24.61;42.73;101756.13;5033003;28;20468;-49
2022/08/02 08:12:24;;;;;;;3.90;3.50;;;;;;;24.41;42.25;101758.75;5032976;28;20475;-46
2022/08/02 08:14:51;;;;;;;5.37;3.43;;;;;;;24.00;42.87;101759.53;5033210;28;20435;-48
2022/08/02 08:17:19;;;;;;;4.20;3.17;;;;;;;23.62;43.18;101758.66;5033328;28;20459;-53
2022/08/02 08:19:47;;;;;;;4.80;3.60;;;;;;;23.69;43.02;101742.94;5031440;28;20456;-48
2022/08/02 08:22:20;;;;;;;3.70;3.37;;;;;;;23.70;44.75;101749.22;5032952;28;20428;-47
2022/08/02 08:24:48;;;;;;;7.17;3.53;;;;;;;23.79;43.66;101741.38;5032948;28;20538;-48
2022/08/02 08:27:16;;;;;;;4.90;3.67;;;;;;;23.79;44.10;101744.13;5032751;28;20452;-50
2022/08/02 08:29:44;;;;;;;9.43;3.60;;;;;;;24.07;43.12;101744.59;5032245;28;20461;-50
2022/08/02 08:32:12;;;;;;;5.90;3.77;;;;;;;24.27;42.86;101732.22;5032344;28;20467;-46
2022/08/02 08:34:45;;;;;;;5.23;3.70;;;;;;;24.56;42.83;101726.13;5026589;28;20491;-50
2022/08/02 08:37:12;;;;;;;3.83;3.53;;;;;;;24.44;43.40;101741.88;5030996;28;21040;-49
2022/08/02 08:39:46;;;;;;;6.23;4.00;;;;;;;24.36;42.51;101736.09;5032104;28;20466;-48
2022/08/02 08:42:24;;;;;;;4.33;3.70;;;;;;;24.32;42.47;101741.25;5032343;28;20474;-47
2022/08/02 08:44:52;;;;;;;10.10;4.00;;;;;;;24.25;42.75;101729.78;5032752;28;20442;-50
2022/08/02 08:47:23;;;;;;;3.83;3.40;;;;;;;24.04;43.02;101728.75;5032585;28;20459;-45
2022/08/02 08:49:54;;;;;;;7.23;3.33;;;;;;;23.94;43.04;101727.88;5031967;28;20473;-47
2022/08/02 08:52:25;;;;;;;4.80;3.40;;;;;;;23.62;42.89;101731.44;5032137;28;20884;-51
2022/08/02 08:54:56;;;;;;;5.30;3.30;;;;;;;23.48;42.79;101710.34;5032250;28;20443;-48
2022/08/02 08:57:28;;;;;;;4.30;3.33;;;;;;;23.38;43.76;101719.22;5032383;28;20458;-49
2022/08/02 08:59:56;;;;;;;5.37;3.60;;;;;;;23.30;43.43;101722.41;5031713;28;20463;-47
2022/08/02 09:02:24;;;;;;;9.13;4.60;;;;;;;23.33;43.61;101715.59;5031944;28;20921;-51
2022/08/02 09:04:55;;;;;;;3.60;3.20;;;;;;;23.44;44.00;101707.34;5032361;28;20439;-51
2022/08/02 09:07:23;;;;;;;5.27;4.30;;;;;;;23.10;44.58;101714.03;5032085;28;20459;-50
2022/08/02 09:09:50;;;;;;;9.40;4.30;;;;;;;23.09;44.66;101709.66;5031609;28;20471;-50
2022/08/02 09:12:23;;;;;;;4.60;4.00;;;;;;;23.29;43.86;101704.44;5031942;28;20478;-49
2022/08/02 09:14:51;;;;;;;7.60;5.20;;;;;;;23.39;43.66;101711.88;5032166;28;20446;-47
2022/08/02 09:17:19;;;;;;;9.27;4.17;;;;;;;23.55;43.84;101708.25;5031816;28;20459;-50
2022/08/02 09:20:07;;;;;;;4.50;3.63;;;;;;;23.52;44.09;101701.41;5031586;28;20466;-48
2022/08/02 09:22:34;;;;;;;5.83;3.73;;;;;;;23.54;43.13;101704.69;5031910;28;20424;-48
2022/08/02 09:25:02;;;;;;;4.17;3.57;;;;;;;23.65;43.43;101708.34;5032048;28;20554;-45
2022/08/02 09:27:36;;;;;;;5.10;3.77;;;;;;;23.69;43.19;101707.53;5031809;28;20451;-47
2022/08/02 09:30:13;;;;;;;3.30;3.00;;;;;;;23.73;42.15;101705.13;5031450;28;20435;-52
2022/08/02 09:32:45;;;;;;;5.90;4.30;;;;;;;23.77;41.64;101719.06;5031438;28;21176;-50
2022/08/02 09:35:14;;;;;;;4.47;4.00;;;;;;;23.76;42.07;101715.50;5023493;28;20428;-52
2022/08/02 09:37:41;;;;;;;4.33;3.93;;;;;;;23.69;42.31;101704.00;5031209;28;20438;-46
2022/08/02 09:40:15;;;;;;;3.83;3.53;;;;;;;23.65;42.27;101697.44;5031766;28;20432;-48
2022/08/02 09:42:59;;;;;;;6.10;3.70;;;;;;;23.76;41.58;101701.88;5031439;28;20531;-48
2022/08/02 09:45:30;;;;;;;5.87;4.13;;;;;;;23.97;42.03;101694.66;5031849;28;20435;-49
2022/08/02 09:47:58;;;;;;;7.07;3.30;;;;;;;24.12;41.82;101697.53;5031344;28;20898;-51
2022/08/02 09:50:25;;;;;;;3.43;3.13;;;;;;;24.12;41.46;101698.34;5031678;28;20518;-48
2022/08/02 09:52:55;;;;;;;4.20;3.17;;;;;;;24.27;40.39;101696.78;5031258;28;20467;-45
2022/08/02 09:55:23;;;;;;;5.23;3.27;;;;;;;24.28;41.10;101702.00;5031384;28;20435;-45
2022/08/02 09:57:52;;;;;;;3.80;3.50;;;;;;;24.42;40.82;101696.88;5031245;28;20454;-51
2022/08/02 10:00:21;;;;;;;3.23;2.83;;;;;;;24.59;40.15;101690.13;5031645;28;20439;-48
2022/08/02 10:03:08;;;;;;;3.20;2.93;;;;;;;24.70;39.21;101689.06;5031310;28;20431;-46
2022/08/02 10:05:50;;;;;;;4.70;3.73;;;;;;;24.70;39.10;101675.44;5031328;28;20447;-46
2022/08/02 10:08:29;;;;;;;5.33;3.60;;;;;;;24.70;38.82;101678.16;5031123;28;20872;-47
2022/08/02 10:11:00;;;;;;;6.30;2.87;;;;;;;24.69;38.13;101671.09;5031419;28;20523;-48
2022/08/02 10:13:30;;;;;;;5.60;3.23;;;;;;;24.70;38.95;101699.19;5031183;28;20475;-51
2022/08/02 10:15:59;;;;;;;3.53;3.33;;;;;;;24.70;37.77;101689.06;5031236;28;20464;-47
2022/08/02 10:18:26;;;;;;;3.43;3.17;;;;;;;24.89;37.05;101684.00;5030839;28;20459;-48
2022/08/02 10:21:18;;;;;;;3.30;3.00;;;;;;;24.90;37.47;101687.53;5031445;28;20438;-49
2022/08/02 10:23:48;;;;;;;3.47;2.77;;;;;;;24.77;36.24;101670.56;5031063;28;20933;-49
2022/08/02 10:26:18;;;;;;;3.20;3.00;;;;;;;24.86;37.18;101676.34;5031322;28;20452;-45
2022/08/02 10:28:48;;;;;;;6.47;3.40;;;;;;;24.81;37.34;101670.06;5030751;28;20463;-48
2022/08/02 10:31:20;;;;;;;5.33;3.67;;;;;;;24.99;37.33;101658.63;5031680;28;20436;-50
2022/08/02 10:33:49;;;;;;;3.27;2.97;;;;;;;25.06;37.02;101656.47;5030935;28;20474;-47
2022/08/02 10:36:18;;;;;;;3.70;3.40;;;;;;;25.09;36.46;101653.22;5022938;28;20467;-48
2022/08/02 10:38:47;;;;;;;4.23;3.13;;;;;;;25.28;36.12;101655.13;5030721;28;20475;-51
2022/08/02 10:41:14;;;;;;;4.00;3.30;;;;;;;25.37;36.55;101647.22;5031137;28;20436;-49
2022/08/02 10:43:47;;;;;;;3.43;2.90;;;;;;;25.60;37.54;101643.94;5033133;28;20442;-48
2022/08/02 10:46:29;;;;;;;2.60;2.40;;;;;;;25.83;36.37;101640.66;5035057;28;20452;-50
2022/08/02 10:49:11;;;;;;;5.97;3.00;;;;;;;25.60;35.95;101640.38;5034461;28;20451;-47
2022/08/02 10:52:06;;;;;;;5.73;3.60;;;;;;;25.89;35.68;101638.72;5033402;28;20431;-47
2022/08/02 10:54:36;;;;;;;3.73;2.80;;;;;;;25.80;34.43;101643.13;5034710;28;20778;-49
2022/08/02 10:57:15;;;;;;;3.30;3.00;;;;;;;25.95;34.29;101632.16;5034648;28;20814;-48
2022/08/02 10:59:43;;;;;;;3.97;3.30;;;;;;;25.95;34.93;101625.88;5034184;28;20455;-51
2022/08/02 11:02:13;;;;;;;6.77;3.97;;;;;;;26.07;35.46;101629.13;5034114;28;20435;-48
2022/08/02 11:05:01;;;;;;;2.97;2.67;;;;;;;26.05;34.74;101618.44;5034737;28;20531;-51
2022/08/02 11:07:35;;;;;;;2.73;2.53;;;;;;;26.05;35.21;101618.44;5034104;28;20920;-46
2022/08/02 11:10:31;;;;;;;3.27;3.07;;;;;;;26.00;34.14;101609.44;5027236;28;20450;-49
2022/08/02 11:13:18;;;;;;;4.50;2.60;;;;;;;26.01;35.10;101609.19;5033937;28;20493;-50
2022/08/02 11:15:55;;;;;;;3.17;2.90;;;;;;;25.98;35.25;101601.53;5034190;28;20463;-48
2022/08/02 11:19:04;;;;;;;3.33;3.03;;;;;;;25.97;34.38;101590.88;5033728;28;20520;-48
2022/08/02 11:21:34;;;;;;;3.10;2.90;;;;;;;26.05;34.99;101599.31;5024291;28;20965;-50
2022/08/02 11:24:26;;;;;;;3.50;3.17;;;;;;;26.04;34.60;101605.06;5013919;28;20930;-50
2022/08/02 11:26:54;;;;;;;2.80;2.60;;;;;;;26.12;35.67;101610.78;5014160;28;20452;-48
2022/08/02 11:29:31;;;;;;;6.10;4.03;;;;;;;26.37;34.97;101602.47;5013526;28;20470;-44
2022/08/02 11:32:05;;;;;;;3.40;2.90;;;;;;;26.40;34.96;101592.91;5014076;28;20432;-51
2022/08/02 11:34:35;;;;;;;3.23;2.80;;;;;;;26.32;34.42;101588.03;5021235;28;20486;-45
2022/08/02 11:37:05;;;;;;;3.20;3.00;;;;;;;26.41;35.57;101572.66;5030408;28;20452;-45
2022/08/02 11:39:32;;;;;;;4.63;2.87;;;;;;;26.40;35.00;101577.31;5033256;28;20546;-47
2022/08/02 11:42:01;;;;;;;6.80;3.00;;;;;;;26.24;34.90;101577.66;5033956;28;20797;-45
2022/08/02 11:44:30;;;;;;;3.30;3.00;;;;;;;26.16;34.64;101584.56;5026951;28;20439;-47